sensor_id;sensor_type;location;lat;lon;timestamp;pressure;altitude;pressure_sealevel;temperature;humidity
6032;BME280;3044;43.232;27.972;2024-01-06T00:00:38;45132.84;;;-143.84;62.10
6032;BME280;3044;43.232;27.972;2024-01-06T00:03:06;45140.47;;;-143.84;62.00
6032;BME280;3044;43.232;27.972;2024-01-06T00:05:33;45132.84;;;-143.84;61.66
6032;BME280;3044;43.232;27.972;2024-01-06T00:08:01;45161.41;;;-143.84;61.30
6032;BME280;3044;43.232;27.972;2024-01-06T00:10:28;45148.09;;;-143.84;60.38
6032;BME280;3044;43.232;27.972;2024-01-06T00:12:54;45150.00;;;-143.84;60.07
6032;BME280;3044;43.232;27.972;2024-01-06T00:15:21;45129.03;;;-143.84;59.48
6032;BME280;3044;43.232;27.972;2024-01-06T00:17:48;45129.03;;;-143.84;59.44
6032;BME280;3044;43.232;27.972;2024-01-06T00:20:16;45138.56;;;-143.84;58.80
6032;BME280;3044;43.232;27.972;2024-01-06T00:22:44;45146.19;;;-143.84;58.91
6032;BME280;3044;43.232;27.972;2024-01-06T00:25:11;45123.34;;;-143.84;58.84
6032;BME280;3044;43.232;27.972;2024-01-06T00:27:39;45151.91;;;-143.84;58.68
6032;BME280;3044;43.232;27.972;2024-01-06T00:30:07;45153.81;;;-143.84;58.63
6032;BME280;3044;43.232;27.972;2024-01-06T00:32:34;45144.28;;;-143.84;58.61
6032;BME280;3044;43.232;27.972;2024-01-06T00:35:01;45138.56;;;-143.84;59.40
6032;BME280;3044;43.232;27.972;2024-01-06T00:37:30;45148.09;;;-143.84;59.86
6032;BME280;3044;43.232;27.972;2024-01-06T00:39:57;45134.75;;;-143.84;59.24
6032;BME280;3044;43.232;27.972;2024-01-06T00:42:24;45117.63;;;-143.84;59.44
6032;BME280;3044;43.232;27.972;2024-01-06T00:44:51;45130.94;;;-143.84;59.99
6032;BME280;3044;43.232;27.972;2024-01-06T00:47:18;45138.56;;;-143.84;59.88
6032;BME280;3044;43.232;27.972;2024-01-06T00:49:47;45146.19;;;-143.84;59.68
6032;BME280;3044;43.232;27.972;2024-01-06T00:52:15;45142.38;;;-143.84;59.18
6032;BME280;3044;43.232;27.972;2024-01-06T00:54:43;45146.19;;;-143.84;58.34
6032;BME280;3044;43.232;27.972;2024-01-06T00:57:10;45148.09;;;-143.84;58.24
6032;BME280;3044;43.232;27.972;2024-01-06T00:59:37;45113.81;;;-143.84;57.87
6032;BME280;3044;43.232;27.972;2024-01-06T01:02:04;45134.75;;;-143.84;57.73
6032;BME280;3044;43.232;27.972;2024-01-06T01:04:32;45138.56;;;-143.84;57.22
6032;BME280;3044;43.232;27.972;2024-01-06T01:06:59;45134.75;;;-143.84;56.99
6032;BME280;3044;43.232;27.972;2024-01-06T01:09:26;45129.03;;;-143.84;56.65
6032;BME280;3044;43.232;27.972;2024-01-06T01:11:54;45159.50;;;-143.84;56.53
6032;BME280;3044;43.232;27.972;2024-01-06T01:14:22;45157.59;;;-143.84;56.62
6032;BME280;3044;43.232;27.972;2024-01-06T01:16:49;45138.56;;;-143.84;56.79
6032;BME280;3044;43.232;27.972;2024-01-06T01:19:16;45150.00;;;-143.84;56.81
6032;BME280;3044;43.232;27.972;2024-01-06T01:21:43;45155.69;;;-143.84;56.96
6032;BME280;3044;43.232;27.972;2024-01-06T01:24:10;45140.47;;;-143.84;57.08
6032;BME280;3044;43.232;27.972;2024-01-06T01:26:37;45138.56;;;-143.84;57.65
6032;BME280;3044;43.232;27.972;2024-01-06T01:29:06;45134.75;;;-143.84;57.88
6032;BME280;3044;43.232;27.972;2024-01-06T01:31:33;45163.31;;;-143.84;57.97
6032;BME280;3044;43.232;27.972;2024-01-06T01:34:00;45136.66;;;-143.84;58.47
6032;BME280;3044;43.232;27.972;2024-01-06T01:36:27;45150.00;;;-143.84;58.47
6032;BME280;3044;43.232;27.972;2024-01-06T01:38:54;45148.09;;;-143.84;58.97
6032;BME280;3044;43.232;27.972;2024-01-06T01:41:21;45148.09;;;-143.84;59.63
6032;BME280;3044;43.232;27.972;2024-01-06T01:43:48;45144.28;;;-143.84;59.77
6032;BME280;3044;43.232;27.972;2024-01-06T01:46:25;45140.47;;;-143.84;60.37
6032;BME280;3044;43.232;27.972;2024-01-06T01:48:53;45150.00;;;-143.84;59.90
6032;BME280;3044;43.232;27.972;2024-01-06T01:51:20;45157.59;;;-143.84;59.96
6032;BME280;3044;43.232;27.972;2024-01-06T01:53:49;45138.56;;;-143.84;59.98
6032;BME280;3044;43.232;27.972;2024-01-06T01:56:16;45151.91;;;-143.84;59.54
6032;BME280;3044;43.232;27.972;2024-01-06T01:58:43;45148.09;;;-143.84;60.15
6032;BME280;3044;43.232;27.972;2024-01-06T02:01:10;45127.13;;;-143.84;59.47
6032;BME280;3044;43.232;27.972;2024-01-06T02:03:41;45140.47;;;-143.84;60.52
6032;BME280;3044;43.232;27.972;2024-01-06T02:06:09;45159.50;;;-143.84;60.71
6032;BME280;3044;43.232;27.972;2024-01-06T02:08:36;45148.09;;;-143.84;61.24
6032;BME280;3044;43.232;27.972;2024-01-06T02:11:04;45151.91;;;-143.84;61.26
6032;BME280;3044;43.232;27.972;2024-01-06T02:13:33;45155.69;;;-143.84;61.81
6032;BME280;3044;43.232;27.972;2024-01-06T02:16:01;45176.66;;;-143.84;61.32
6032;BME280;3044;43.232;27.972;2024-01-06T02:18:29;45151.91;;;-143.84;61.05
6032;BME280;3044;43.232;27.972;2024-01-06T02:20:58;45159.50;;;-143.84;61.50
6032;BME280;3044;43.232;27.972;2024-01-06T02:23:27;45151.91;;;-143.84;60.69
6032;BME280;3044;43.232;27.972;2024-01-06T02:25:54;45148.09;;;-143.84;60.87
6032;BME280;3044;43.232;27.972;2024-01-06T02:28:22;45157.59;;;-143.84;60.67
6032;BME280;3044;43.232;27.972;2024-01-06T02:30:49;45142.38;;;-143.84;60.78
6032;BME280;3044;43.232;27.972;2024-01-06T02:33:16;45159.50;;;-143.84;60.61
6032;BME280;3044;43.232;27.972;2024-01-06T02:35:45;45169.03;;;-143.84;60.36
6032;BME280;3044;43.232;27.972;2024-01-06T02:38:11;45150.00;;;-143.84;60.48
6032;BME280;3044;43.232;27.972;2024-01-06T02:40:39;45129.03;;;-143.84;60.38
6032;BME280;3044;43.232;27.972;2024-01-06T02:43:08;45134.75;;;-143.84;60.26
6032;BME280;3044;43.232;27.972;2024-01-06T02:45:35;45132.84;;;-143.84;59.94
6032;BME280;3044;43.232;27.972;2024-01-06T02:48:03;45163.31;;;-143.84;59.65
6032;BME280;3044;43.232;27.972;2024-01-06T02:50:30;45165.22;;;-143.84;59.92
6032;BME280;3044;43.232;27.972;2024-01-06T02:52:57;45144.28;;;-143.84;60.62
6032;BME280;3044;43.232;27.972;2024-01-06T02:55:24;45132.84;;;-143.84;62.06
6032;BME280;3044;43.232;27.972;2024-01-06T02:57:53;45155.69;;;-143.84;62.33
6032;BME280;3044;43.232;27.972;2024-01-06T03:00:20;45130.94;;;-143.84;63.88
6032;BME280;3044;43.232;27.972;2024-01-06T03:02:47;45132.84;;;-143.84;64.96
6032;BME280;3044;43.232;27.972;2024-01-06T03:05:14;45140.47;;;-143.84;67.87
6032;BME280;3044;43.232;27.972;2024-01-06T03:07:42;45153.81;;;-143.84;70.68
6032;BME280;3044;43.232;27.972;2024-01-06T03:10:10;45148.09;;;-143.84;72.53
6032;BME280;3044;43.232;27.972;2024-01-06T03:12:37;45153.81;;;-143.84;73.96
6032;BME280;3044;43.232;27.972;2024-01-06T03:15:06;45134.75;;;-143.84;76.56
6032;BME280;3044;43.232;27.972;2024-01-06T03:17:33;45132.84;;;-143.84;78.14
6032;BME280;3044;43.232;27.972;2024-01-06T03:20:00;45151.91;;;-143.84;79.39
6032;BME280;3044;43.232;27.972;2024-01-06T03:22:29;45136.66;;;-143.84;81.15
6032;BME280;3044;43.232;27.972;2024-01-06T03:24:56;45138.56;;;-143.84;81.57
6032;BME280;3044;43.232;27.972;2024-01-06T03:27:23;45186.16;;;-143.84;82.54
6032;BME280;3044;43.232;27.972;2024-01-06T03:29:51;45151.91;;;-143.84;82.61
6032;BME280;3044;43.232;27.972;2024-01-06T03:32:19;45155.69;;;-143.84;83.00
6032;BME280;3044;43.232;27.972;2024-01-06T03:34:46;45165.22;;;-143.84;83.50
6032;BME280;3044;43.232;27.972;2024-01-06T03:37:14;45151.91;;;-143.84;83.75
6032;BME280;3044;43.232;27.972;2024-01-06T03:39:41;45140.47;;;-143.84;84.45
6032;BME280;3044;43.232;27.972;2024-01-06T03:42:08;45163.31;;;-143.84;84.87
6032;BME280;3044;43.232;27.972;2024-01-06T03:44:35;45163.31;;;-143.84;84.98
6032;BME280;3044;43.232;27.972;2024-01-06T03:47:02;45134.75;;;-143.84;85.51
6032;BME280;3044;43.232;27.972;2024-01-06T03:49:31;45159.50;;;-143.84;86.14
6032;BME280;3044;43.232;27.972;2024-01-06T03:51:58;45151.91;;;-143.84;86.57
6032;BME280;3044;43.232;27.972;2024-01-06T03:54:25;45163.31;;;-143.84;86.84
6032;BME280;3044;43.232;27.972;2024-01-06T03:56:52;45155.69;;;-143.84;87.76
6032;BME280;3044;43.232;27.972;2024-01-06T03:59:19;45157.59;;;-143.84;88.37
6032;BME280;3044;43.232;27.972;2024-01-06T04:01:46;45150.00;;;-143.84;89.04
6032;BME280;3044;43.232;27.972;2024-01-06T04:04:13;45165.22;;;-143.84;90.04
6032;BME280;3044;43.232;27.972;2024-01-06T04:06:42;45144.28;;;-143.84;89.81
6032;BME280;3044;43.232;27.972;2024-01-06T04:09:09;45169.03;;;-143.84;89.13
6032;BME280;3044;43.232;27.972;2024-01-06T04:11:36;45142.38;;;-143.84;89.16
6032;BME280;3044;43.232;27.972;2024-01-06T04:14:03;45167.13;;;-143.84;88.69
6032;BME280;3044;43.232;27.972;2024-01-06T04:16:30;45188.06;;;-143.84;87.91
6032;BME280;3044;43.232;27.972;2024-01-06T04:18:57;45161.41;;;-143.84;87.69
6032;BME280;3044;43.232;27.972;2024-01-06T04:21:24;45159.50;;;-143.84;86.93
6032;BME280;3044;43.232;27.972;2024-01-06T04:23:53;45150.00;;;-143.84;86.57
6032;BME280;3044;43.232;27.972;2024-01-06T04:26:21;45150.00;;;-143.84;86.55
6032;BME280;3044;43.232;27.972;2024-01-06T04:28:48;45174.75;;;-143.84;86.99
6032;BME280;3044;43.232;27.972;2024-01-06T04:31:15;45186.16;;;-143.84;87.08
6032;BME280;3044;43.232;27.972;2024-01-06T04:33:42;45174.75;;;-143.84;86.63
6032;BME280;3044;43.232;27.972;2024-01-06T04:36:10;45167.13;;;-143.84;86.83
6032;BME280;3044;43.232;27.972;2024-01-06T04:38:37;45159.50;;;-143.84;87.33
6032;BME280;3044;43.232;27.972;2024-01-06T04:41:05;45169.03;;;-143.84;87.53
6032;BME280;3044;43.232;27.972;2024-01-06T04:43:33;45193.78;;;-143.84;87.95
6032;BME280;3044;43.232;27.972;2024-01-06T04:46:00;45150.00;;;-143.84;87.90
6032;BME280;3044;43.232;27.972;2024-01-06T04:48:28;45174.75;;;-143.84;87.97
6032;BME280;3044;43.232;27.972;2024-01-06T04:50:55;45155.69;;;-143.84;87.98
6032;BME280;3044;43.232;27.972;2024-01-06T04:53:22;45163.31;;;-143.84;88.04
6032;BME280;3044;43.232;27.972;2024-01-06T04:55:49;45151.91;;;-143.84;87.48
6032;BME280;3044;43.232;27.972;2024-01-06T04:58:17;45151.91;;;-143.84;87.50
6032;BME280;3044;43.232;27.972;2024-01-06T05:00:44;45193.78;;;-143.84;87.40
6032;BME280;3044;43.232;27.972;2024-01-06T05:03:11;45132.84;;;-143.84;87.46
6032;BME280;3044;43.232;27.972;2024-01-06T05:05:38;45159.50;;;-143.84;87.25
6032;BME280;3044;43.232;27.972;2024-01-06T05:08:06;45140.47;;;-143.84;87.67
6032;BME280;3044;43.232;27.972;2024-01-06T05:10:33;45146.19;;;-143.84;87.99
6032;BME280;3044;43.232;27.972;2024-01-06T05:13:00;45144.28;;;-143.84;88.13
6032;BME280;3044;43.232;27.972;2024-01-06T05:15:28;45170.94;;;-143.84;88.50
6032;BME280;3044;43.232;27.972;2024-01-06T05:17:56;45153.81;;;-143.84;88.83
6032;BME280;3044;43.232;27.972;2024-01-06T05:20:23;45146.19;;;-143.84;89.13
6032;BME280;3044;43.232;27.972;2024-01-06T05:22:50;45167.13;;;-143.84;89.21
6032;BME280;3044;43.232;27.972;2024-01-06T05:25:17;45165.22;;;-143.84;89.15
6032;BME280;3044;43.232;27.972;2024-01-06T05:27:44;45178.56;;;-143.84;88.88
6032;BME280;3044;43.232;27.972;2024-01-06T05:30:12;45159.50;;;-143.84;88.30
6032;BME280;3044;43.232;27.972;2024-01-06T05:32:40;45153.81;;;-143.84;88.33
6032;BME280;3044;43.232;27.972;2024-01-06T05:35:08;45130.94;;;-143.84;88.24
6032;BME280;3044;43.232;27.972;2024-01-06T05:37:35;45155.69;;;-143.84;88.07
6032;BME280;3044;43.232;27.972;2024-01-06T05:40:02;45165.22;;;-143.84;88.24
6032;BME280;3044;43.232;27.972;2024-01-06T05:42:29;45159.50;;;-143.84;88.62
6032;BME280;3044;43.232;27.972;2024-01-06T05:44:56;45159.50;;;-143.84;88.71
6032;BME280;3044;43.232;27.972;2024-01-06T05:47:23;45142.38;;;-143.84;89.02
6032;BME280;3044;43.232;27.972;2024-01-06T05:49:52;45155.69;;;-143.84;89.04
6032;BME280;3044;43.232;27.972;2024-01-06T05:52:19;45155.69;;;-143.84;88.84
6032;BME280;3044;43.232;27.972;2024-01-06T05:54:46;45170.94;;;-143.84;88.73
6032;BME280;3044;43.232;27.972;2024-01-06T05:57:13;45153.81;;;-143.84;88.56
6032;BME280;3044;43.232;27.972;2024-01-06T05:59:41;45169.03;;;-143.84;88.70
6032;BME280;3044;43.232;27.972;2024-01-06T06:02:08;45167.13;;;-143.84;88.43
6032;BME280;3044;43.232;27.972;2024-01-06T06:04:35;45174.75;;;-143.84;88.29
6032;BME280;3044;43.232;27.972;2024-01-06T06:07:04;45161.41;;;-143.84;87.98
6032;BME280;3044;43.232;27.972;2024-01-06T06:09:31;45134.75;;;-143.84;87.64
6032;BME280;3044;43.232;27.972;2024-01-06T06:12:00;45159.50;;;-143.84;87.55
6032;BME280;3044;43.232;27.972;2024-01-06T06:14:27;45155.69;;;-143.84;87.11
6032;BME280;3044;43.232;27.972;2024-01-06T06:16:54;45138.56;;;-143.84;86.84
6032;BME280;3044;43.232;27.972;2024-01-06T06:19:22;45148.09;;;-143.84;86.92
6032;BME280;3044;43.232;27.972;2024-01-06T06:21:49;45138.56;;;-143.84;86.91
6032;BME280;3044;43.232;27.972;2024-01-06T06:24:17;45167.13;;;-143.84;86.95
6032;BME280;3044;43.232;27.972;2024-01-06T06:26:45;45174.75;;;-143.84;86.67
6032;BME280;3044;43.232;27.972;2024-01-06T06:29:12;45176.66;;;-143.84;86.76
6032;BME280;3044;43.232;27.972;2024-01-06T06:31:39;45150.00;;;-143.84;86.94
6032;BME280;3044;43.232;27.972;2024-01-06T06:34:07;45163.31;;;-143.84;86.76
6032;BME280;3044;43.232;27.972;2024-01-06T06:36:35;45157.59;;;-143.84;86.77
6032;BME280;3044;43.232;27.972;2024-01-06T06:39:02;45161.41;;;-143.84;86.93
6032;BME280;3044;43.232;27.972;2024-01-06T06:41:31;45155.69;;;-143.84;86.57
6032;BME280;3044;43.232;27.972;2024-01-06T06:43:58;45163.31;;;-143.84;86.82
6032;BME280;3044;43.232;27.972;2024-01-06T06:46:25;45174.75;;;-143.84;86.75
6032;BME280;3044;43.232;27.972;2024-01-06T06:48:52;45142.38;;;-143.84;86.93
6032;BME280;3044;43.232;27.972;2024-01-06T06:51:20;45176.66;;;-143.84;86.96
6032;BME280;3044;43.232;27.972;2024-01-06T06:53:50;45159.50;;;-143.84;86.66
6032;BME280;3044;43.232;27.972;2024-01-06T06:56:18;45155.69;;;-143.84;86.43
6032;BME280;3044;43.232;27.972;2024-01-06T06:58:46;45138.56;;;-143.84;86.48
6032;BME280;3044;43.232;27.972;2024-01-06T07:01:13;45155.69;;;-143.84;86.22
6032;BME280;3044;43.232;27.972;2024-01-06T07:03:41;45172.84;;;-143.84;86.54
6032;BME280;3044;43.232;27.972;2024-01-06T07:06:08;45163.31;;;-143.84;86.62
6032;BME280;3044;43.232;27.972;2024-01-06T07:08:35;45163.31;;;-143.84;86.39
6032;BME280;3044;43.232;27.972;2024-01-06T07:11:04;45129.03;;;-143.84;86.28
6032;BME280;3044;43.232;27.972;2024-01-06T07:13:31;45155.69;;;-143.84;85.73
6032;BME280;3044;43.232;27.972;2024-01-06T07:16:00;45134.75;;;-143.84;85.54
6032;BME280;3044;43.232;27.972;2024-01-06T07:18:27;45144.28;;;-143.84;85.05
6032;BME280;3044;43.232;27.972;2024-01-06T07:20:54;45129.03;;;-143.84;85.22
6032;BME280;3044;43.232;27.972;2024-01-06T07:23:21;45140.47;;;-143.84;84.83
6032;BME280;3044;43.232;27.972;2024-01-06T07:25:48;45155.69;;;-143.84;83.96
6032;BME280;3044;43.232;27.972;2024-01-06T07:28:15;45165.22;;;-143.84;82.75
6032;BME280;3044;43.232;27.972;2024-01-06T07:30:42;45144.28;;;-143.84;82.42
6032;BME280;3044;43.232;27.972;2024-01-06T07:33:11;45123.34;;;-143.84;81.98
6032;BME280;3044;43.232;27.972;2024-01-06T07:35:38;45150.00;;;-143.84;81.98
6032;BME280;3044;43.232;27.972;2024-01-06T07:38:09;45125.22;;;-143.84;82.25
6032;BME280;3044;43.232;27.972;2024-01-06T07:40:37;45142.38;;;-143.84;82.21
6032;BME280;3044;43.232;27.972;2024-01-06T07:43:04;45140.47;;;-143.84;82.24
6032;BME280;3044;43.232;27.972;2024-01-06T07:45:31;45146.19;;;-143.84;82.64
6032;BME280;3044;43.232;27.972;2024-01-06T07:47:58;45130.94;;;-143.84;82.98
6032;BME280;3044;43.232;27.972;2024-01-06T07:50:27;45157.59;;;-143.84;82.73
6032;BME280;3044;43.232;27.972;2024-01-06T07:52:54;45155.69;;;-143.84;82.68
6032;BME280;3044;43.232;27.972;2024-01-06T07:55:21;45123.34;;;-143.84;82.58
6032;BME280;3044;43.232;27.972;2024-01-06T07:57:49;45176.66;;;-143.84;82.27
6032;BME280;3044;43.232;27.972;2024-01-06T08:00:16;45130.94;;;-143.84;82.27
6032;BME280;3044;43.232;27.972;2024-01-06T08:02:43;45144.28;;;-143.84;82.29
6032;BME280;3044;43.232;27.972;2024-01-06T08:05:10;45146.19;;;-143.84;82.04
6032;BME280;3044;43.232;27.972;2024-01-06T08:07:39;45151.91;;;-143.84;82.56
6032;BME280;3044;43.232;27.972;2024-01-06T08:10:07;45127.13;;;-143.84;82.41
6032;BME280;3044;43.232;27.972;2024-01-06T08:12:34;45117.63;;;-143.84;83.12
6032;BME280;3044;43.232;27.972;2024-01-06T08:15:01;45148.09;;;-143.84;82.94
6032;BME280;3044;43.232;27.972;2024-01-06T08:17:30;45136.66;;;-143.84;83.55
6032;BME280;3044;43.232;27.972;2024-01-06T08:19:57;45151.91;;;-143.84;83.67
6032;BME280;3044;43.232;27.972;2024-01-06T08:22:24;45151.91;;;-143.84;83.42
6032;BME280;3044;43.232;27.972;2024-01-06T08:24:53;45136.66;;;-143.84;83.47
6032;BME280;3044;43.232;27.972;2024-01-06T08:27:20;45142.38;;;-143.84;83.86
6032;BME280;3044;43.232;27.972;2024-01-06T08:29:49;45144.28;;;-143.84;82.99
6032;BME280;3044;43.232;27.972;2024-01-06T08:32:16;45140.47;;;-143.84;82.67
6032;BME280;3044;43.232;27.972;2024-01-06T08:34:43;45136.66;;;-143.84;82.55
6032;BME280;3044;43.232;27.972;2024-01-06T08:37:11;45140.47;;;-143.84;80.41
6032;BME280;3044;43.232;27.972;2024-01-06T08:39:38;45121.44;;;-143.84;77.77
6032;BME280;3044;43.232;27.972;2024-01-06T08:42:08;45130.94;;;-143.84;75.84
6032;BME280;3044;43.232;27.972;2024-01-06T08:44:35;45132.84;;;-143.84;76.15
6032;BME280;3044;43.232;27.972;2024-01-06T08:47:02;45113.81;;;-143.84;75.13
6032;BME280;3044;43.232;27.972;2024-01-06T08:49:29;45106.19;;;-143.84;72.95
6032;BME280;3044;43.232;27.972;2024-01-06T08:51:58;45125.22;;;-143.84;71.71
6032;BME280;3044;43.232;27.972;2024-01-06T08:54:25;45125.22;;;-143.84;72.47
6032;BME280;3044;43.232;27.972;2024-01-06T08:56:52;45142.38;;;-143.84;73.96
6032;BME280;3044;43.232;27.972;2024-01-06T08:59:21;45119.53;;;-143.84;74.10
6032;BME280;3044;43.232;27.972;2024-01-06T09:01:48;45138.56;;;-143.84;75.71
6032;BME280;3044;43.232;27.972;2024-01-06T09:04:15;45155.69;;;-143.84;76.67
6032;BME280;3044;43.232;27.972;2024-01-06T09:06:42;45127.13;;;-143.84;76.79
6032;BME280;3044;43.232;27.972;2024-01-06T09:09:11;45155.69;;;-143.84;77.03
6032;BME280;3044;43.232;27.972;2024-01-06T09:11:39;45140.47;;;-143.84;77.47
6032;BME280;3044;43.232;27.972;2024-01-06T09:14:07;45155.69;;;-143.84;77.57
6032;BME280;3044;43.232;27.972;2024-01-06T09:16:37;45123.34;;;-143.84;78.81
6032;BME280;3044;43.232;27.972;2024-01-06T09:19:04;45130.94;;;-143.84;78.63
6032;BME280;3044;43.232;27.972;2024-01-06T09:21:31;45132.84;;;-143.84;77.23
6032;BME280;3044;43.232;27.972;2024-01-06T09:23:58;45129.03;;;-143.84;75.46
6032;BME280;3044;43.232;27.972;2024-01-06T09:26:31;45115.72;;;-143.84;74.08
6032;BME280;3044;43.232;27.972;2024-01-06T09:28:59;45117.63;;;-143.84;74.34
6032;BME280;3044;43.232;27.972;2024-01-06T09:31:27;45130.94;;;-143.84;75.00
6032;BME280;3044;43.232;27.972;2024-01-06T09:33:59;45132.84;;;-143.84;75.21
6032;BME280;3044;43.232;27.972;2024-01-06T09:36:27;45100.47;;;-143.84;74.03
6032;BME280;3044;43.232;27.972;2024-01-06T09:38:54;45130.94;;;-143.84;75.10
6032;BME280;3044;43.232;27.972;2024-01-06T09:41:21;45119.53;;;-143.84;75.36
6032;BME280;3044;43.232;27.972;2024-01-06T09:43:48;45157.59;;;-143.84;76.60
6032;BME280;3044;43.232;27.972;2024-01-06T09:46:23;45104.28;;;-143.84;77.74
6032;BME280;3044;43.232;27.972;2024-01-06T09:48:52;45123.34;;;-143.84;77.13
6032;BME280;3044;43.232;27.972;2024-01-06T09:51:22;45134.75;;;-143.84;77.87
6032;BME280;3044;43.232;27.972;2024-01-06T09:53:55;45142.38;;;-143.84;78.16
6032;BME280;3044;43.232;27.972;2024-01-06T09:56:24;45125.22;;;-143.84;77.66
6032;BME280;3044;43.232;27.972;2024-01-06T09:58:51;45119.53;;;-143.84;76.91
6032;BME280;3044;43.232;27.972;2024-01-06T10:01:19;45161.41;;;-143.84;77.14
6032;BME280;3044;43.232;27.972;2024-01-06T10:03:46;45121.44;;;-143.84;78.13
6032;BME280;3044;43.232;27.972;2024-01-06T10:06:14;45136.66;;;-143.84;79.46
6032;BME280;3044;43.232;27.972;2024-01-06T10:08:44;45132.84;;;-143.84;79.72
6032;BME280;3044;43.232;27.972;2024-01-06T10:11:11;45129.03;;;-143.84;80.33
6032;BME280;3044;43.232;27.972;2024-01-06T10:13:40;45146.19;;;-143.84;79.71
6032;BME280;3044;43.232;27.972;2024-01-06T10:16:07;45132.84;;;-143.84;79.04
6032;BME280;3044;43.232;27.972;2024-01-06T10:18:34;45110.00;;;-143.84;78.55
6032;BME280;3044;43.232;27.972;2024-01-06T10:21:03;45146.19;;;-143.84;77.97
6032;BME280;3044;43.232;27.972;2024-01-06T10:23:31;45132.84;;;-143.84;77.93
6032;BME280;3044;43.232;27.972;2024-01-06T10:26:00;45125.22;;;-143.84;77.22
6032;BME280;3044;43.232;27.972;2024-01-06T10:28:28;45140.47;;;-143.84;76.02
6032;BME280;3044;43.232;27.972;2024-01-06T10:30:56;45146.19;;;-143.84;75.77
6032;BME280;3044;43.232;27.972;2024-01-06T10:33:25;45125.22;;;-143.84;74.90
6032;BME280;3044;43.232;27.972;2024-01-06T10:35:53;45148.09;;;-143.84;73.30
6032;BME280;3044;43.232;27.972;2024-01-06T10:38:21;45115.72;;;-143.84;73.20
6032;BME280;3044;43.232;27.972;2024-01-06T10:40:56;45125.22;;;-143.84;72.89
6032;BME280;3044;43.232;27.972;2024-01-06T10:43:26;45117.63;;;-143.84;73.96
6032;BME280;3044;43.232;27.972;2024-01-06T10:45:56;45151.91;;;-143.84;74.92
6032;BME280;3044;43.232;27.972;2024-01-06T10:48:25;45134.75;;;-143.84;76.75
6032;BME280;3044;43.232;27.972;2024-01-06T10:50:53;45130.94;;;-143.84;78.74
6032;BME280;3044;43.232;27.972;2024-01-06T10:53:21;45138.56;;;-143.84;80.62
6032;BME280;3044;43.232;27.972;2024-01-06T10:55:52;45144.28;;;-143.84;80.69
6032;BME280;3044;43.232;27.972;2024-01-06T10:58:19;45134.75;;;-143.84;81.57
6032;BME280;3044;43.232;27.972;2024-01-06T11:00:48;45129.03;;;-143.84;81.87
6032;BME280;3044;43.232;27.972;2024-01-06T11:03:16;45153.81;;;-143.84;82.58
6032;BME280;3044;43.232;27.972;2024-01-06T11:05:45;45148.09;;;-143.84;83.15
6032;BME280;3044;43.232;27.972;2024-01-06T11:08:12;45155.69;;;-143.84;84.11
6032;BME280;3044;43.232;27.972;2024-01-06T11:10:40;45155.69;;;-143.84;83.94
6032;BME280;3044;43.232;27.972;2024-01-06T11:13:11;45144.28;;;-143.84;84.01
6032;BME280;3044;43.232;27.972;2024-01-06T11:15:46;45153.81;;;-143.84;84.23
6032;BME280;3044;43.232;27.972;2024-01-06T11:18:35;45163.31;;;-143.84;84.88
6032;BME280;3044;43.232;27.972;2024-01-06T11:21:17;45151.91;;;-143.84;85.05
6032;BME280;3044;43.232;27.972;2024-01-06T11:24:14;45178.56;;;-143.84;84.20
6032;BME280;3044;43.232;27.972;2024-01-06T11:26:49;45140.47;;;-143.84;84.45
6032;BME280;3044;43.232;27.972;2024-01-06T11:29:20;45161.41;;;-143.84;83.61
6032;BME280;3044;43.232;27.972;2024-01-06T11:32:25;45148.09;;;-143.84;83.43
6032;BME280;3044;43.232;27.972;2024-01-06T11:34:54;45142.38;;;-143.84;83.30
6032;BME280;3044;43.232;27.972;2024-01-06T11:37:25;45172.84;;;-143.84;83.48
6032;BME280;3044;43.232;27.972;2024-01-06T11:39:52;45129.03;;;-143.84;83.46
6032;BME280;3044;43.232;27.972;2024-01-06T11:42:20;45138.56;;;-143.84;83.64
6032;BME280;3044;43.232;27.972;2024-01-06T11:44:51;45172.84;;;-143.84;83.51
6032;BME280;3044;43.232;27.972;2024-01-06T11:47:18;45146.19;;;-143.84;83.40
6032;BME280;3044;43.232;27.972;2024-01-06T11:49:55;45125.22;;;-143.84;83.72
6032;BME280;3044;43.232;27.972;2024-01-06T11:52:23;45136.66;;;-143.84;84.54
6032;BME280;3044;43.232;27.972;2024-01-06T11:54:52;45134.75;;;-143.84;84.24
6032;BME280;3044;43.232;27.972;2024-01-06T11:57:21;45155.69;;;-143.84;85.00
6032;BME280;3044;43.232;27.972;2024-01-06T11:59:48;45157.59;;;-143.84;84.19
6032;BME280;3044;43.232;27.972;2024-01-06T12:02:17;45159.50;;;-143.84;84.06
6032;BME280;3044;43.232;27.972;2024-01-06T12:04:48;45142.38;;;-143.84;84.43
6032;BME280;3044;43.232;27.972;2024-01-06T12:07:18;45146.19;;;-143.84;84.26
6032;BME280;3044;43.232;27.972;2024-01-06T12:09:45;45138.56;;;-143.84;84.45
6032;BME280;3044;43.232;27.972;2024-01-06T12:12:15;45148.09;;;-143.84;84.68
6032;BME280;3044;43.232;27.972;2024-01-06T12:14:42;45155.69;;;-143.84;84.72
6032;BME280;3044;43.232;27.972;2024-01-06T12:17:11;45170.94;;;-143.84;83.63
6032;BME280;3044;43.232;27.972;2024-01-06T12:19:39;45142.38;;;-143.84;83.80
6032;BME280;3044;43.232;27.972;2024-01-06T12:22:10;45161.41;;;-143.84;83.56
6032;BME280;3044;43.232;27.972;2024-01-06T12:24:40;45155.69;;;-143.84;83.04
6032;BME280;3044;43.232;27.972;2024-01-06T12:27:07;45146.19;;;-143.84;82.50
6032;BME280;3044;43.232;27.972;2024-01-06T12:29:38;45115.72;;;-143.84;83.13
6032;BME280;3044;43.232;27.972;2024-01-06T12:32:06;45125.22;;;-143.84;83.24
6032;BME280;3044;43.232;27.972;2024-01-06T12:34:34;45148.09;;;-143.84;83.99
6032;BME280;3044;43.232;27.972;2024-01-06T12:37:01;45129.03;;;-143.84;84.20
6032;BME280;3044;43.232;27.972;2024-01-06T12:39:30;45132.84;;;-143.84;84.33
6032;BME280;3044;43.232;27.972;2024-01-06T12:42:00;45148.09;;;-143.84;84.17
6032;BME280;3044;43.232;27.972;2024-01-06T12:44:27;45129.03;;;-143.84;83.99
6032;BME280;3044;43.232;27.972;2024-01-06T12:46:54;45148.09;;;-143.84;84.14
6032;BME280;3044;43.232;27.972;2024-01-06T12:49:21;45111.91;;;-143.84;84.20
6032;BME280;3044;43.232;27.972;2024-01-06T12:51:49;45148.09;;;-143.84;83.84
6032;BME280;3044;43.232;27.972;2024-01-06T12:54:16;45130.94;;;-143.84;83.50